Time;durP1;ratioP1;P1;durP2;ratioP2;P2;SDS_P1;SDS_P2;PMS_P1;PMS_P2;Temp;Humidity;BMP_temperature;BMP_pressure;BME280_temperature;BME280_humidity;BME280_pressure;Samples;Min_cycle;Max_cycle;Signal;HPM_P1;HPM_P2
2023/07/12 00:04:54;;;;;;;4.95;3.95;;;;;;;23.57;54.37;99338.66;10297960;28;20776;-66
2023/07/12 00:09:55;;;;;;;6.18;4.15;;;;;;;23.42;54.52;99370.41;10289949;28;20354;-68
2023/07/12 00:14:57;;;;;;;5.25;3.83;;;;;;;24.18;52.88;99382.00;10286070;28;20231;-69
2023/07/12 00:19:59;;;;;;;7.53;4.10;;;;;;;24.98;52.23;99327.06;10256783;28;20261;-68
2023/07/12 00:25:00;;;;;;;5.47;4.03;;;;;;;23.95;53.96;99367.09;10280520;28;20317;-66
2023/07/12 00:30:21;;;;;;;5.03;3.80;;;;;;;24.29;53.08;99360.03;10274623;28;20329;-69
2023/07/12 00:35:26;;;;;;;6.57;3.75;;;;;;;23.04;54.88;99389.09;10276084;28;20230;-68
2023/07/12 00:46:53;;;;;;;6.57;3.58;;;;;;;23.18;55.02;99353.88;10249683;28;20235;-68
2023/07/12 00:52:16;;;;;;;7.20;4.07;;;;;;;23.21;54.12;99347.03;10280090;28;20238;-68
2023/07/12 00:57:18;;;;;;;7.65;3.63;;;;;;;23.70;53.98;99302.56;10280098;28;20233;-68
2023/07/12 01:02:23;;;;;;;5.15;3.35;;;;;;;22.08;57.24;99339.88;10274300;28;20377;-65
2023/07/12 01:07:27;;;;;;;3.42;3.05;;;;;;;23.74;53.99;99270.03;10273392;28;20231;-68
2023/07/12 01:12:28;;;;;;;5.90;3.25;;;;;;;24.70;51.45;99244.78;10278602;28;20238;-68
2023/07/12 01:17:30;;;;;;;5.05;3.55;;;;;;;23.68;53.53;99244.66;10273595;28;20325;-68
2023/07/12 01:22:32;;;;;;;4.20;2.97;;;;;;;24.49;51.62;99206.69;10277172;28;20741;-65
2023/07/12 01:27:34;;;;;;;4.72;3.22;;;;;;;24.11;53.05;99181.16;10278776;28;20266;-67
2023/07/12 01:32:37;;;;;;;3.78;3.13;;;;;;;23.93;53.12;99183.50;10252533;28;20329;-67
2023/07/12 01:37:38;;;;;;;4.57;3.30;;;;;;;25.05;50.43;99213.41;10290223;28;20230;-67
2023/07/12 01:42:40;;;;;;;4.05;2.60;;;;;;;25.96;48.99;99222.41;10238612;28;20283;-67
2023/07/12 01:47:43;;;;;;;4.32;3.10;;;;;;;25.78;49.05;99255.06;10235460;28;20277;-68
2023/07/12 01:52:44;;;;;;;6.35;3.53;;;;;;;25.27;49.68;99294.13;10234361;28;20239;-67
2023/07/12 01:57:46;;;;;;;4.88;4.00;;;;;;;24.36;50.85;99330.47;10235782;28;20250;-68
2023/07/12 02:02:48;;;;;;;7.43;4.28;;;;;;;24.34;51.86;99269.75;10225761;28;20310;-67
2023/07/12 02:07:52;;;;;;;8.75;3.30;;;;;;;23.87;51.93;99291.22;10234957;28;20716;-67
2023/07/12 02:12:54;;;;;;;4.88;3.42;;;;;;;23.18;54.34;99269.28;10235270;28;20242;-67
2023/07/12 02:17:56;;;;;;;6.35;3.60;;;;;;;22.76;54.75;99292.34;10239932;28;20285;-68
2023/07/12 02:22:58;;;;;;;6.65;3.83;;;;;;;22.79;54.81;99269.97;10233173;28;20274;-67
2023/07/12 02:28:00;;;;;;;8.52;3.72;;;;;;;23.09;54.01;99276.41;10281357;28;20242;-66
2023/07/12 02:33:02;;;;;;;6.35;3.30;;;;;;;23.75;52.60;99258.81;10232495;28;20235;-67
2023/07/12 02:38:04;;;;;;;8.30;3.72;;;;;;;22.88;54.30;99259.31;10234650;28;20208;-67
2023/07/12 02:43:06;;;;;;;3.35;3.03;;;;;;;21.58;56.48;99282.34;10233445;28;20231;-67
2023/07/12 02:48:07;;;;;;;5.03;3.60;;;;;;;23.36;53.40;99194.09;10238183;28;20286;-68
2023/07/12 02:53:17;;;;;;;3.35;2.75;;;;;;;22.85;55.01;99222.47;10235416;28;20231;-67
2023/07/12 02:58:18;;;;;;;5.45;3.28;;;;;;;22.60;54.58;99242.50;10232706;28;20235;-67
2023/07/12 03:03:20;;;;;;;3.05;2.70;;;;;;;22.16;54.91;99270.38;10228717;28;20242;-67
2023/07/12 03:08:22;;;;;;;4.65;3.03;;;;;;;22.65;54.85;99222.59;10234779;28;20242;-68
2023/07/12 03:13:24;;;;;;;3.25;2.75;;;;;;;22.83;55.11;99207.50;10229717;28;20239;-69
2023/07/12 03:18:25;;;;;;;5.40;3.15;;;;;;;23.25;53.38;99204.28;10230817;28;20354;-68
2023/07/12 03:23:31;;;;;;;3.55;2.92;;;;;;;22.62;55.43;99234.88;10228053;28;20239;-68
2023/07/12 03:28:33;;;;;;;7.88;3.78;;;;;;;23.22;53.92;99215.75;10231822;28;20228;-67
2023/07/12 03:33:35;;;;;;;5.65;3.45;;;;;;;22.79;54.02;99269.16;10233947;28;20318;-67
2023/07/12 03:38:37;;;;;;;7.63;3.08;;;;;;;23.03;53.82;99261.97;10231758;28;20274;-67
2023/07/12 03:43:39;;;;;;;6.28;3.50;;;;;;;21.85;56.35;99299.53;10230863;28;20278;-68
2023/07/12 03:48:41;;;;;;;5.35;3.58;;;;;;;22.39;55.24;99292.72;10239304;28;21007;-66
2023/07/12 03:53:44;;;;;;;4.95;3.65;;;;;;;21.66;56.66;99329.16;10241567;28;20467;-68
2023/07/12 03:58:46;;;;;;;7.35;3.60;;;;;;;21.99;56.85;99261.69;10246347;28;20719;-66
2023/07/12 04:03:47;;;;;;;5.65;3.67;;;;;;;21.78;57.17;99278.00;10243730;28;20244;-66
2023/07/12 04:08:49;;;;;;;6.10;3.50;;;;;;;21.52;57.65;99297.00;10240712;28;20270;-67
2023/07/12 04:13:51;;;;;;;9.20;3.47;;;;;;;22.48;55.92;99280.13;10241057;28;20742;-67
2023/07/12 04:18:53;;;;;;;5.63;3.50;;;;;;;22.41;56.04;99291.31;10236006;28;20737;-67
2023/07/12 04:23:55;;;;;;;5.75;3.30;;;;;;;22.24;56.35;99297.06;10237156;28;20318;-67
2023/07/12 04:28:56;;;;;;;6.97;3.80;;;;;;;21.93;57.22;99329.75;10236345;28;20345;-67
2023/07/12 04:33:58;;;;;;;5.35;3.10;;;;;;;22.46;55.19;99340.38;10237511;28;20718;-66
2023/07/12 04:39:00;;;;;;;7.28;3.55;;;;;;;22.17;57.00;99326.50;10243976;28;20301;-65
2023/07/12 04:44:02;;;;;;;5.20;3.55;;;;;;;21.55;58.20;99386.31;10236443;28;20314;-66
2023/07/12 04:49:04;;;;;;;5.07;3.95;;;;;;;21.29;58.29;99385.38;10238116;28;20255;-65
2023/07/12 04:54:06;;;;;;;6.28;3.40;;;;;;;22.34;56.15;99380.72;10237456;28;20307;-66
2023/07/12 04:59:07;;;;;;;4.57;3.38;;;;;;;22.55;56.34;99365.19;10236719;28;20315;-68
2023/07/12 05:04:09;;;;;;;4.82;3.50;;;;;;;22.47;56.04;99399.25;10242248;28;20231;-68
2023/07/12 05:09:11;;;;;;;4.55;3.85;;;;;;;22.22;57.17;99383.72;10237898;28;20239;-66
2023/07/12 05:14:13;;;;;;;5.05;3.72;;;;;;;22.68;56.37;99374.72;10241233;28;20267;-68
2023/07/12 05:19:15;;;;;;;6.50;3.88;;;;;;;23.70;54.67;99338.06;10238829;28;20243;-68
2023/07/12 05:24:16;;;;;;;6.32;3.53;;;;;;;23.13;55.31;99391.25;10233282;28;20318;-68
2023/07/12 05:29:18;;;;;;;6.07;3.53;;;;;;;22.82;55.99;99385.88;10236829;28;20231;-69
2023/07/12 05:34:20;;;;;;;6.93;4.22;;;;;;;22.53;55.43;99430.91;10237109;28;20350;-68
2023/07/12 05:39:21;;;;;;;6.80;4.00;;;;;;;23.27;54.61;99408.69;10235401;28;21061;-66
2023/07/12 05:44:23;;;;;;;6.97;4.00;;;;;;;23.10;54.97;99419.13;10235706;28;20239;-67
2023/07/12 05:49:25;;;;;;;9.25;4.10;;;;;;;23.13;55.14;99411.22;10234694;28;20263;-68
2023/07/12 05:54:27;;;;;;;5.20;4.00;;;;;;;22.43;56.13;99460.84;10237555;28;20356;-68
2023/07/12 05:59:29;;;;;;;5.88;4.07;;;;;;;23.24;54.33;99420.97;10234247;28;20661;-68
2023/07/12 06:04:30;;;;;;;5.05;3.80;;;;;;;22.79;55.04;99422.72;10233407;28;20231;-68
2023/07/12 06:09:32;;;;;;;5.30;3.95;;;;;;;23.65;53.53;99424.66;10235152;28;20330;-68
2023/07/12 06:14:34;;;;;;;7.20;4.28;;;;;;;23.12;54.78;99438.75;10235327;28;20714;-68
2023/07/12 06:19:36;;;;;;;6.18;4.25;;;;;;;23.54;54.31;99413.75;10230518;28;20567;-68
2023/07/12 06:24:37;;;;;;;8.02;4.47;;;;;;;24.03;53.67;99389.47;10236387;28;20243;-68
2023/07/12 06:29:45;;;;;;;6.45;4.00;;;;;;;23.42;53.61;99465.16;10238740;28;20225;-67
2023/07/12 06:34:47;;;;;;;5.80;4.03;;;;;;;24.16;52.56;99446.25;10234969;28;20614;-68
2023/07/12 06:39:49;;;;;;;5.03;3.30;;;;;;;23.89;53.47;99441.22;10233063;28;20242;-68
2023/07/12 06:44:50;;;;;;;5.10;3.22;;;;;;;24.08;53.02;99450.34;10235618;28;20313;-67
2023/07/12 06:49:53;;;;;;;4.32;3.30;;;;;;;24.66;51.06;99446.94;10234054;28;20227;-68
2023/07/12 06:54:55;;;;;;;7.25;3.72;;;;;;;24.83;50.81;99462.97;10232841;28;20236;-68
2023/07/12 06:59:57;;;;;;;7.35;3.85;;;;;;;24.25;51.45;99474.59;10235744;28;20236;-67
2023/07/12 07:04:58;;;;;;;5.88;3.40;;;;;;;25.03;50.75;99461.91;10232128;28;20258;-67
2023/07/12 07:10:00;;;;;;;9.63;4.47;;;;;;;24.11;52.15;99482.59;10233664;28;20231;-67
2023/07/12 07:15:02;;;;;;;7.38;3.83;;;;;;;25.08;50.41;99441.91;10232707;28;20322;-67
2023/07/12 07:20:05;;;;;;;5.13;3.60;;;;;;;24.92;51.29;99441.25;10231223;28;20227;-68
2023/07/12 07:25:08;;;;;;;6.20;3.78;;;;;;;24.11;51.92;99503.66;10240747;28;20281;-67
2023/07/12 07:30:21;;;;;;;5.85;3.58;;;;;;;25.52;49.31;99440.03;10239464;28;20321;-67
2023/07/12 07:35:23;;;;;;;5.32;3.45;;;;;;;26.12;48.06;99450.50;10239825;28;20234;-67
2023/07/12 07:40:25;;;;;;;6.30;3.53;;;;;;;25.68;48.28;99468.88;10242834;28;20328;-68
2023/07/12 07:45:27;;;;;;;5.45;3.08;;;;;;;24.65;49.25;99505.47;10239477;28;20235;-67
2023/07/12 07:50:29;;;;;;;5.38;3.00;;;;;;;25.60;47.48;99469.53;10237746;28;20290;-67
2023/07/12 07:55:32;;;;;;;4.15;2.65;;;;;;;24.55;48.66;99527.44;10239691;28;20229;-67
2023/07/12 08:00:33;;;;;;;4.38;2.47;;;;;;;25.35;47.44;99470.66;10239237;28;20238;-67
2023/07/12 08:05:35;;;;;;;7.95;2.97;;;;;;;25.19;46.93;99492.69;10238532;28;20295;-67
2023/07/12 08:10:37;;;;;;;5.30;2.78;;;;;;;24.61;47.91;99507.13;10239155;28;20726;-67
2023/07/12 08:15:40;;;;;;;4.43;3.00;;;;;;;24.91;47.83;99516.22;10240248;28;20964;-68
2023/07/12 08:20:41;;;;;;;3.38;2.80;;;;;;;25.45;46.04;99520.63;10233967;28;20247;-68
2023/07/12 08:25:43;;;;;;;3.58;2.53;;;;;;;25.83;45.79;99489.81;10236928;28;20246;-67
2023/07/12 08:30:47;;;;;;;5.20;2.92;;;;;;;26.47;45.23;99504.00;10238079;28;20413;-67
2023/07/12 08:35:49;;;;;;;5.03;2.70;;;;;;;26.21;45.16;99490.66;10237305;28;20324;-67
2023/07/12 08:40:51;;;;;;;5.20;2.55;;;;;;;25.02;45.67;99512.31;10246063;28;20721;-68
2023/07/12 08:45:56;;;;;;;3.70;1.77;;;;;;;26.64;43.48;99486.19;10239978;28;20235;-68
2023/07/12 08:51:00;;;;;;;2.65;2.00;;;;;;;26.08;42.80;99512.50;10239251;28;20239;-68
2023/07/12 08:56:04;;;;;;;3.30;2.10;;;;;;;25.32;44.38;99531.47;10238607;28;20232;-68
2023/07/12 09:01:10;;;;;;;2.45;2.25;;;;;;;27.35;42.45;99480.56;10232938;28;20242;-68
2023/07/12 09:06:15;;;;;;;3.47;2.20;;;;;;;24.35;45.23;99563.94;10238518;28;20235;-68
2023/07/12 09:11:20;;;;;;;3.05;2.17;;;;;;;25.93;43.40;99502.56;10235378;28;20338;-68
2023/07/12 09:16:34;;;;;;;2.55;2.03;;;;;;;26.38;42.53;99514.00;10240621;28;20685;-67
2023/07/12 09:21:38;;;;;;;4.38;2.15;;;;;;;25.26;43.87;99547.94;10231556;28;20239;-68
2023/07/12 09:26:40;;;;;;;2.85;1.80;;;;;;;26.33;43.28;99506.69;10231128;28;20239;-67
2023/07/12 09:31:44;;;;;;;3.05;2.00;;;;;;;26.37;43.25;99488.50;10238451;28;20782;-67
2023/07/12 09:36:48;;;;;;;4.32;1.80;;;;;;;25.90;43.66;99516.88;10235594;28;20235;-67
2023/07/12 09:41:54;;;;;;;2.95;1.80;;;;;;;25.97;43.72;99547.47;10237728;28;20330;-67
2023/07/12 09:47:27;;;;;;;3.65;2.00;;;;;;;26.15;43.01;99507.47;10232726;28;20239;-67
2023/07/12 09:52:40;;;;;;;2.53;1.83;;;;;;;26.41;42.37;99498.88;10226025;28;20239;-67
2023/07/12 09:58:04;;;;;;;4.10;1.90;;;;;;;25.93;42.98;99540.91;10232788;28;20235;-67
2023/07/12 10:03:31;;;;;;;3.65;2.25;;;;;;;25.38;44.38;99489.25;10280908;28;20262;-67
2023/07/12 10:08:45;;;;;;;2.80;2.17;;;;;;;26.03;42.96;99500.50;10290152;28;20313;-67
2023/07/12 10:13:51;;;;;;;2.53;1.90;;;;;;;25.73;43.08;99509.13;10294470;28;20237;-66
2023/07/12 10:18:55;;;;;;;3.85;2.10;;;;;;;26.82;41.80;99473.53;10276044;28;20289;-68
2023/07/12 10:24:03;;;;;;;2.72;1.60;;;;;;;25.20;42.28;99494.38;10278483;28;20587;-67
2023/07/12 10:29:15;;;;;;;2.95;1.73;;;;;;;26.05;42.03;99489.25;10276579;28;20330;-68
2023/07/12 10:34:43;;;;;;;2.97;2.00;;;;;;;26.18;41.88;99479.44;10293837;28;20264;-67
2023/07/12 10:39:47;;;;;;;1.92;1.80;;;;;;;24.80;43.02;99531.09;10280802;28;20261;-67
2023/07/12 10:44:53;;;;;;;2.80;1.70;;;;;;;26.86;40.29;99480.06;10280752;28;20325;-68
2023/07/12 10:50:02;;;;;;;2.40;1.60;;;;;;;26.68;40.75;99506.41;10271536;28;20239;-67
2023/07/12 10:55:04;;;;;;;2.10;1.83;;;;;;;26.44;41.23;99468.94;10272645;28;20234;-67
2023/07/12 11:06:26;;;;;;;2.25;1.70;;;;;;;23.31;45.52;99417.94;10361498;28;20804;-66
2023/07/12 11:11:30;;;;;;;3.47;1.92;;;;;;;23.42;45.13;99416.00;10274751;28;20897;-66
2023/07/12 11:16:32;;;;;;;3.05;1.70;;;;;;;25.04;43.05;99408.00;10291243;28;20328;-67
2023/07/12 11:21:51;;;;;;;2.97;1.65;;;;;;;24.98;41.94;99418.19;10319251;28;20335;-67
2023/07/12 11:26:57;;;;;;;2.47;1.92;;;;;;;26.19;41.53;99399.63;10324747;28;20312;-67
2023/07/12 11:32:23;;;;;;;2.17;1.98;;;;;;;24.15;44.19;99429.00;10307429;28;20241;-67
2023/07/12 11:37:36;;;;;;;2.50;1.90;;;;;;;25.01;42.70;99433.22;10299505;28;20237;-66
2023/07/12 11:42:38;;;;;;;2.92;1.50;;;;;;;25.17;41.79;99439.34;10308309;28;20296;-67
2023/07/12 11:47:51;;;;;;;3.85;1.83;;;;;;;25.05;41.06;99462.47;10318464;28;20236;-66
2023/07/12 11:52:55;;;;;;;1.90;1.50;;;;;;;25.03;41.75;99450.16;10300428;28;20262;-67
2023/07/12 11:57:56;;;;;;;2.40;1.80;;;;;;;24.41;41.54;99494.47;10279245;28;20273;-66
2023/07/12 12:03:04;;;;;;;4.57;2.33;;;;;;;26.05;40.71;99428.94;10279515;28;20241;-67
2023/07/12 12:08:09;;;;;;;2.90;1.95;;;;;;;25.01;41.18;99479.75;10280425;28;20241;-67
2023/07/12 12:13:17;;;;;;;2.95;2.28;;;;;;;25.32;41.59;99414.56;10279814;28;20224;-67
2023/07/12 12:18:22;;;;;;;2.67;1.92;;;;;;;25.16;41.23;99449.47;10279691;28;20219;-67
2023/07/12 12:23:38;;;;;;;2.65;1.65;;;;;;;25.06;41.63;99444.91;10284284;28;20305;-67
2023/07/12 12:28:43;;;;;;;2.80;1.70;;;;;;;25.46;41.25;99420.13;10281112;28;20237;-66
2023/07/12 12:33:59;;;;;;;2.88;1.60;;;;;;;25.64;40.60;99422.09;10281318;28;20266;-66
2023/07/12 12:39:21;;;;;;;1.95;1.70;;;;;;;25.09;41.70;99440.81;10290037;28;20237;-67
2023/07/12 12:44:27;;;;;;;2.25;1.70;;;;;;;25.72;40.20;99414.34;10282986;28;20278;-67
2023/07/12 12:49:34;;;;;;;2.88;1.70;;;;;;;24.51;40.39;99486.19;10279878;28;20322;-67
2023/07/12 12:54:38;;;;;;;3.75;2.00;;;;;;;26.17;38.77;99431.22;10267942;28;20712;-66
2023/07/12 12:59:46;;;;;;;4.82;1.70;;;;;;;25.71;39.03;99438.16;10278984;28;20818;-66
2023/07/12 13:05:08;;;;;;;2.22;1.77;;;;;;;25.59;39.32;99441.34;10278070;28;20230;-69
2023/07/12 13:10:15;;;;;;;3.70;1.70;;;;;;;26.61;39.27;99437.38;10266729;28;20227;-70
2023/07/12 13:15:22;;;;;;;1.92;1.63;;;;;;;26.83;38.82;99425.78;10279352;28;20331;-70
2023/07/12 13:20:44;;;;;;;2.88;1.80;;;;;;;26.44;39.26;99425.03;10273458;28;20866;-69
2023/07/12 13:25:50;;;;;;;3.13;1.85;;;;;;;26.26;38.61;99415.72;10277720;28;20329;-69
2023/07/12 13:30:52;;;;;;;1.70;1.50;;;;;;;26.29;37.58;99393.19;10280557;28;20243;-70
2023/07/12 13:35:54;;;;;;;2.53;1.80;;;;;;;26.87;37.57;99397.44;10291209;28;20230;-70
2023/07/12 13:40:59;;;;;;;3.65;1.80;;;;;;;26.67;37.31;99423.28;10279524;28;20266;-70
2023/07/12 13:46:14;;;;;;;3.67;1.58;;;;;;;25.98;37.48;99387.38;10285795;28;20227;-69
2023/07/12 13:51:23;;;;;;;7.70;1.95;;;;;;;26.88;36.92;99390.00;10275556;28;20241;-69
2023/07/12 13:56:25;;;;;;;2.90;1.88;;;;;;;25.38;37.56;99429.81;10266439;28;20748;-69
2023/07/12 14:01:32;;;;;;;4.38;1.83;;;;;;;25.72;37.21;99431.59;10274911;28;20630;-69
2023/07/12 14:06:36;;;;;;;3.35;1.50;;;;;;;25.59;36.99;99448.72;10271737;28;20266;-70
2023/07/12 14:11:57;;;;;;;2.63;1.50;;;;;;;27.50;36.10;99401.38;10287914;28;20230;-69
2023/07/12 14:16:59;;;;;;;2.15;1.40;;;;;;;25.50;37.19;99423.91;10286294;28;20246;-72
2023/07/12 14:22:09;;;;;;;3.88;2.00;;;;;;;26.16;36.67;99427.66;10281318;28;20230;-67
2023/07/12 14:27:25;;;;;;;2.15;1.48;;;;;;;25.47;37.91;99413.53;10274329;28;20781;-67
2023/07/12 14:32:34;;;;;;;2.03;1.55;;;;;;;25.59;37.00;99407.63;10276988;28;20235;-69
2023/07/12 14:37:36;;;;;;;2.70;1.48;;;;;;;25.70;37.23;99416.53;10269916;28;20239;-69
2023/07/12 14:42:38;;;;;;;2.00;1.60;;;;;;;26.37;36.91;99375.25;10282752;28;20316;-69
2023/07/12 14:47:40;;;;;;;3.95;2.10;;;;;;;25.75;37.74;99397.31;10278163;28;20732;-69
2023/07/12 14:52:43;;;;;;;2.85;1.75;;;;;;;26.19;37.37;99396.88;10275809;28;20238;-69
2023/07/12 14:57:44;;;;;;;4.25;1.50;;;;;;;25.44;38.29;99403.19;10279893;28;20708;-69
2023/07/12 15:03:17;;;;;;;2.03;1.30;;;;;;;26.09;37.30;99420.94;10285731;28;20333;-69
2023/07/12 15:08:25;;;;;;;3.05;1.40;;;;;;;25.46;38.77;99431.91;10278214;28;20211;-70
2023/07/12 15:13:27;;;;;;;2.42;1.60;;;;;;;26.32;38.76;99367.13;10272720;28;20246;-72
2023/07/12 15:18:29;;;;;;;2.25;1.38;;;;;;;26.03;38.30;99374.41;10274854;28;20242;-68
2023/07/12 15:23:37;;;;;;;2.70;1.30;;;;;;;27.74;37.03;99392.09;10271801;28;20246;-70
2023/07/12 15:28:39;;;;;;;1.77;1.52;;;;;;;26.56;38.87;99411.66;10282729;28;20234;-69
2023/07/12 15:33:41;;;;;;;1.50;1.40;;;;;;;26.62;39.00;99386.88;10262802;28;20348;-68
2023/07/12 15:38:46;;;;;;;2.00;1.45;;;;;;;25.81;39.04;99383.25;10275446;28;20235;-72
2023/07/12 15:43:50;;;;;;;1.50;1.30;;;;;;;26.35;38.25;99394.75;10282795;28;20418;-71
2023/07/12 15:48:53;;;;;;;1.40;1.10;;;;;;;26.41;38.36;99413.88;10282779;28;20330;-72
2023/07/12 15:53:55;;;;;;;1.33;1.00;;;;;;;24.92;39.71;99428.38;10290495;28;21032;-73
2023/07/12 15:58:57;;;;;;;2.22;1.27;;;;;;;25.69;38.41;99423.91;10285034;28;21022;-72
2023/07/12 16:03:59;;;;;;;1.50;1.10;;;;;;;25.71;38.36;99420.88;10288974;28;20262;-72
2023/07/12 16:09:00;;;;;;;3.65;1.33;;;;;;;25.57;38.62;99423.53;10286448;28;20230;-74
2023/07/12 16:14:29;;;;;;;1.08;1.05;;;;;;;26.19;38.64;99412.53;10295086;28;20238;-72
2023/07/12 16:19:30;;;;;;;1.42;1.33;;;;;;;26.65;37.86;99409.03;10277269;28;20349;-72
2023/07/12 16:24:32;;;;;;;2.13;1.13;;;;;;;25.70;38.19;99480.34;10278752;28;20245;-73
2023/07/12 16:29:34;;;;;;;1.30;1.20;;;;;;;25.27;38.73;99466.63;10282590;28;20231;-72
2023/07/12 16:34:36;;;;;;;1.30;1.20;;;;;;;26.01;38.05;99436.09;10289661;28;20238;-75
2023/07/12 16:39:37;;;;;;;2.70;1.50;;;;;;;25.73;37.73;99457.88;10291178;28;20293;-75
2023/07/12 16:44:40;;;;;;;1.70;1.30;;;;;;;26.03;37.26;99470.34;10282683;28;20322;-72
2023/07/12 16:49:47;;;;;;;1.52;1.20;;;;;;;26.80;36.57;99431.88;10282153;28;20238;-72
2023/07/12 16:54:48;;;;;;;1.13;1.02;;;;;;;25.87;37.91;99460.72;10288186;28;20329;-73
2023/07/12 16:59:51;;;;;;;2.05;1.60;;;;;;;26.01;38.48;99478.06;10277228;28;20488;-72
2023/07/12 17:04:55;;;;;;;1.95;1.30;;;;;;;26.87;37.58;99438.59;10283067;28;20238;-73
2023/07/12 17:09:57;;;;;;;1.33;1.10;;;;;;;26.13;37.99;99446.63;10287224;28;20237;-72
2023/07/12 17:14:59;;;;;;;1.75;1.20;;;;;;;24.95;39.10;99495.41;10281004;28;20789;-72
2023/07/12 17:20:00;;;;;;;2.15;1.23;;;;;;;26.82;37.17;99424.94;10285590;28;20230;-72
2023/07/12 17:25:03;;;;;;;2.97;1.30;;;;;;;26.75;37.68;99432.75;10279572;28;20246;-72
2023/07/12 17:30:11;;;;;;;2.25;1.50;;;;;;;25.28;38.82;99495.66;10279837;28;20288;-66
2023/07/12 17:35:13;;;;;;;2.83;1.38;;;;;;;25.50;38.93;99483.34;10286391;28;20314;-67
2023/07/12 17:40:15;;;;;;;2.35;1.58;;;;;;;26.98;37.61;99410.94;10281852;28;20717;-66
2023/07/12 17:45:19;;;;;;;1.55;1.30;;;;;;;26.55;37.85;99431.16;10293080;28;20293;-67
2023/07/12 17:50:20;;;;;;;2.83;1.33;;;;;;;25.95;38.88;99429.91;10294320;28;20781;-66
2023/07/12 17:55:23;;;;;;;1.60;1.42;;;;;;;24.92;39.17;99458.47;10289762;28;20321;-66
2023/07/12 18:00:24;;;;;;;5.47;1.90;;;;;;;27.43;37.66;99405.66;10283496;28;20235;-68
2023/07/12 18:05:28;;;;;;;3.10;1.40;;;;;;;26.88;37.35;99418.25;10272213;28;20776;-65
2023/07/12 18:10:30;;;;;;;3.65;1.20;;;;;;;27.03;37.47;99402.63;10279370;28;20246;-65
2023/07/12 18:15:32;;;;;;;5.95;1.70;;;;;;;27.32;37.23;99405.06;10286078;28;20258;-65
2023/07/12 18:20:34;;;;;;;7.15;1.55;;;;;;;27.15;38.04;99440.53;10277984;28;20296;-67
2023/07/12 18:25:41;;;;;;;3.22;1.52;;;;;;;28.17;37.37;99421.03;10278981;28;20772;-66
2023/07/12 18:30:46;;;;;;;3.20;1.65;;;;;;;28.43;36.77;99454.28;10274863;28;20238;-65
2023/07/12 18:35:51;;;;;;;3.85;1.45;;;;;;;27.83;38.01;99485.63;10277343;28;20245;-66
2023/07/12 18:40:53;;;;;;;1.35;1.20;;;;;;;27.49;37.58;99481.34;10274371;28;20359;-65
2023/07/12 18:45:55;;;;;;;1.55;1.30;;;;;;;27.33;38.09;99505.59;10285767;28;20313;-65
2023/07/12 18:50:57;;;;;;;1.38;1.27;;;;;;;26.81;38.46;99521.31;10279217;28;20261;-65
2023/07/12 18:55:59;;;;;;;2.20;1.50;;;;;;;26.12;39.30;99530.00;10273829;28;20281;-65
2023/07/12 19:01:00;;;;;;;1.85;1.20;;;;;;;26.06;39.21;99493.59;10278567;28;20233;-65
2023/07/12 19:06:04;;;;;;;3.92;1.40;;;;;;;27.02;38.65;99473.16;10286245;28;20732;-67
2023/07/12 19:11:22;;;;;;;2.33;1.50;;;;;;;26.67;39.17;99516.56;10282732;28;20234;-65
2023/07/12 19:16:24;;;;;;;3.25;1.80;;;;;;;26.58;39.49;99502.69;10277988;28;20563;-63
2023/07/12 19:21:31;;;;;;;1.92;1.40;;;;;;;26.23;39.77;99511.50;10281134;28;20243;-63
2023/07/12 19:26:33;;;;;;;2.25;1.38;;;;;;;24.32;41.93;99539.91;10287029;28;20281;-64
2023/07/12 19:31:41;;;;;;;4.03;1.58;;;;;;;24.69;40.53;99525.72;10294865;28;20234;-66
2023/07/12 19:36:44;;;;;;;2.03;1.42;;;;;;;24.73;40.04;99493.13;10288135;28;20301;-64
2023/07/12 19:41:46;;;;;;;1.40;1.30;;;;;;;24.93;39.86;99522.22;10287005;28;20241;-65
2023/07/12 19:46:49;;;;;;;2.28;1.70;;;;;;;25.10;40.04;99492.53;10294801;28;20237;-64
2023/07/12 19:51:51;;;;;;;2.25;1.30;;;;;;;24.72;40.03;99514.19;10290908;28;20239;-66
2023/07/12 19:56:53;;;;;;;1.70;1.58;;;;;;;24.02;40.05;99533.47;10291324;28;20242;-65
2023/07/12 20:01:54;;;;;;;1.42;1.27;;;;;;;25.31;38.13;99495.06;10288510;28;20254;-69
2023/07/12 20:06:59;;;;;;;1.65;1.50;;;;;;;24.61;39.63;99498.94;10296699;28;20238;-67
2023/07/12 20:12:03;;;;;;;3.15;1.23;;;;;;;23.85;40.61;99497.50;10286949;28;20238;-66
2023/07/12 20:17:06;;;;;;;4.85;1.92;;;;;;;23.15;41.09;99506.44;10305343;28;20226;-67
2023/07/12 20:22:12;;;;;;;1.98;1.20;;;;;;;22.74;41.41;99536.44;10284900;28;20293;-68
2023/07/12 20:27:14;;;;;;;1.60;1.35;;;;;;;22.68;41.44;99516.53;10273127;28;20398;-65
2023/07/12 20:32:18;;;;;;;1.45;1.27;;;;;;;22.70;40.93;99517.06;10277631;28;20231;-66
2023/07/12 20:37:20;;;;;;;1.92;1.50;;;;;;;23.48;40.23;99501.44;10279057;28;20238;-69
2023/07/12 20:42:23;;;;;;;1.77;1.30;;;;;;;23.16;40.50;99511.63;10288354;28;20261;-70
2023/07/12 20:47:27;;;;;;;2.15;1.30;;;;;;;22.82;40.32;99512.16;10284316;28;20391;-66
2023/07/12 20:52:28;;;;;;;2.03;1.40;;;;;;;22.38;40.31;99553.53;10283557;28;20777;-64
2023/07/12 20:57:30;;;;;;;2.92;1.60;;;;;;;22.59;39.90;99529.88;10287826;28;20321;-65
2023/07/12 21:02:32;;;;;;;1.27;1.17;;;;;;;23.22;39.57;99517.88;10279641;28;20738;-66
2023/07/12 21:07:34;;;;;;;1.38;1.27;;;;;;;22.40;39.77;99594.16;10280027;28;20231;-67
2023/07/12 21:12:36;;;;;;;2.55;1.45;;;;;;;22.50;39.93;99589.59;10284761;28;20324;-69
2023/07/12 21:17:38;;;;;;;2.55;1.35;;;;;;;22.27;39.38;99590.84;10280549;28;20234;-68
2023/07/12 21:22:40;;;;;;;1.98;1.50;;;;;;;22.52;39.53;99590.13;10277721;28;20347;-67
2023/07/12 21:27:42;;;;;;;2.70;1.52;;;;;;;22.11;39.94;99589.97;10290263;28;20256;-68
2023/07/12 21:32:44;;;;;;;1.30;1.20;;;;;;;21.75;40.66;99600.66;10282806;28;20241;-68
2023/07/12 21:37:46;;;;;;;2.42;1.30;;;;;;;21.72;40.74;99605.81;10293184;28;20233;-68
2023/07/12 21:42:48;;;;;;;1.45;1.30;;;;;;;21.22;41.27;99638.66;10286394;28;20542;-68
2023/07/12 21:47:49;;;;;;;3.60;1.50;;;;;;;21.36;41.72;99595.53;10287392;28;20230;-67
2023/07/12 21:52:51;;;;;;;1.75;1.33;;;;;;;21.30;41.94;99579.38;10275164;28;20813;-69
2023/07/12 21:57:53;;;;;;;3.42;1.55;;;;;;;21.29;41.82;99584.03;10285532;28;20248;-68
2023/07/12 22:02:56;;;;;;;2.83;1.30;;;;;;;19.91;43.62;99637.69;10279469;28;20242;-66
2023/07/12 22:07:57;;;;;;;1.85;1.48;;;;;;;20.49;42.84;99625.38;10276460;28;20238;-68
2023/07/12 22:12:59;;;;;;;2.67;1.38;;;;;;;19.94;43.85;99662.44;10288869;28;20294;-68
2023/07/12 22:18:01;;;;;;;1.98;1.50;;;;;;;20.43;43.31;99653.59;10284822;28;20255;-68
2023/07/12 22:23:03;;;;;;;4.90;2.03;;;;;;;20.31;43.17;99726.25;10282368;28;20249;-67
2023/07/12 22:28:05;;;;;;;1.80;1.48;;;;;;;20.10;43.79;99741.41;10282955;28;20596;-67
2023/07/12 22:33:07;;;;;;;1.63;1.48;;;;;;;21.91;41.24;99710.53;10276262;28;20636;-67
2023/07/12 22:38:09;;;;;;;1.63;1.50;;;;;;;21.24;42.23;99737.16;10273910;28;20751;-66
2023/07/12 22:43:10;;;;;;;2.22;1.55;;;;;;;20.77;42.70;99767.66;10287147;28;20231;-67
2023/07/12 22:48:12;;;;;;;1.63;1.52;;;;;;;20.65;42.96;99745.19;10284801;28;20250;-67
2023/07/12 22:53:14;;;;;;;1.60;1.50;;;;;;;20.20;43.45;99752.47;10269955;28;20293;-68
2023/07/12 22:58:15;;;;;;;4.13;1.20;;;;;;;19.01;45.66;99765.03;10270859;28;20215;-67
2023/07/12 23:03:17;;;;;;;2.58;1.60;;;;;;;19.51;44.77;99734.50;10276476;28;20269;-68
2023/07/12 23:08:19;;;;;;;1.77;1.30;;;;;;;18.46;45.83;99774.47;10284533;28;20207;-67
2023/07/12 23:13:25;;;;;;;3.90;1.60;;;;;;;19.08;45.42;99719.63;10280419;28;20364;-68
2023/07/12 23:18:27;;;;;;;3.10;1.65;;;;;;;18.75;45.59;99728.44;10288289;28;20239;-67
2023/07/12 23:23:29;;;;;;;3.58;2.53;;;;;;;20.02;43.83;99657.66;10276343;28;20247;-68
2023/07/12 23:28:31;;;;;;;5.43;3.88;;;;;;;19.21;45.35;99721.22;10266855;28;20230;-67
2023/07/12 23:33:33;;;;;;;3.03;2.10;;;;;;;19.22;45.25;99709.31;10281430;28;20259;-67
2023/07/12 23:38:35;;;;;;;2.50;1.80;;;;;;;18.68;45.77;99720.47;10275716;28;20234;-67
2023/07/12 23:43:37;;;;;;;4.78;1.40;;;;;;;18.37;46.32;99729.81;10270925;28;20238;-68
2023/07/12 23:48:39;;;;;;;2.50;1.40;;;;;;;19.32;44.92;99657.94;10278293;28;20234;-67